Time,TemperatureF,DewpointF,PressureIn,WindDirection,WindDirectionDegrees,WindSpeedMPH,WindSpeedGustMPH,Humidity,HourlyPrecipIn,Conditions,Clouds,dailyrainin,SolarRadiationWatts/m^2,SoftwareType,DateUTC
2013-11-14 00:01:00,31.9,23.9,30.45,SE,138,2.0,3.0,72,0.00,,,0.00,0,LWC V2.00 B727,2013-11-14 07:01:00,
2013-11-14 00:06:00,31.9,23.9,30.45,SE,139,1.0,3.0,72,0.00,,,0.00,0,LWC V2.00 B727,2013-11-14 07:06:00,
2013-11-14 00:11:00,31.9,23.9,30.45,SE,138,1.0,4.0,72,0.00,,,0.00,0,LWC V2.00 B727,2013-11-14 07:11:00,
2013-11-14 00:16:00,31.8,23.8,30.45,SE,138,4.0,4.0,72,0.00,,,0.00,0,LWC V2.00 B727,2013-11-14 07:16:00,
2013-11-14 00:21:00,31.8,23.8,30.44,SE,139,3.0,5.0,72,0.00,,,0.00,0,LWC V2.00 B727,2013-11-14 07:21:00,
2013-11-14 00:26:00,31.8,23.8,30.44,SE,139,1.0,2.0,72,0.00,,,0.00,0,LWC V2.00 B727,2013-11-14 07:26:00,
2013-11-14 00:31:00,31.7,23.7,30.44,SE,139,1.0,2.0,72,0.00,,,0.00,0,LWC V2.00 B727,2013-11-14 07:31:00,
2013-11-14 00:36:00,31.5,23.9,30.44,SE,139,2.0,3.0,73,0.00,,,0.00,0,LWC V2.00 B727,2013-11-14 07:36:00,
2013-11-14 00:41:00,31.2,23.6,30.44,SE,139,2.0,3.0,73,0.00,,,0.00,0,LWC V2.00 B727,2013-11-14 07:41:00,
2013-11-14 00:46:00,31.0,23.7,30.44,SE,138,2.0,3.0,74,0.00,,,0.00,0,LWC V2.00 B727,2013-11-14 07:46:00,
2013-11-14 00:51:00,31.0,23.7,30.44,SE,138,0.0,2.0,74,0.00,,,0.00,0,LWC V2.00 B727,2013-11-14 07:51:00,
2013-11-14 00:56:00,31.0,23.7,30.43,SE,139,4.0,5.0,74,0.00,,,0.00,0,LWC V2.00 B727,2013-11-14 07:56:00,
2013-11-14 01:01:00,31.0,23.7,30.43,SE,139,0.0,3.0,74,0.00,,,0.00,0,LWC V2.00 B727,2013-11-14 08:01:00,
2013-11-14 01:06:00,31.1,23.8,30.43,SE,138,0.0,3.0,74,0.00,,,0.00,0,LWC V2.00 B727,2013-11-14 08:06:00,
2013-11-14 01:11:00,31.1,23.8,30.43,SE,138,1.0,3.0,74,0.00,,,0.00,0,LWC V2.00 B727,2013-11-14 08:11:00,
2013-11-14 01:16:00,31.0,23.7,30.43,SE,139,0.0,0.0,74,0.00,,,0.00,0,LWC V2.00 B727,2013-11-14 08:16:00,
2013-11-14 01:21:00,30.9,23.6,30.42,SE,139,3.0,3.0,74,0.00,,,0.00,0,LWC V2.00 B727,2013-11-14 08:21:00,
2013-11-14 01:26:00,30.9,23.6,30.42,SE,138,2.0,3.0,74,0.00,,,0.00,0,LWC V2.00 B727,2013-11-14 08:26:00,
2013-11-14 01:31:00,30.8,23.5,30.42,SE,139,3.0,3.0,74,0.00,,,0.00,0,LWC V2.00 B727,2013-11-14 08:31:00,
2013-11-14 01:36:00,30.8,23.8,30.42,SE,139,4.0,4.0,75,0.00,,,0.00,0,LWC V2.00 B727,2013-11-14 08:36:00,
2013-11-14 01:41:00,30.8,23.8,30.42,SE,138,2.0,3.0,75,0.00,,,0.00,0,LWC V2.00 B727,2013-11-14 08:41:00,
2013-11-14 01:46:00,30.8,23.8,30.42,SE,138,2.0,4.0,75,0.00,,,0.00,0,LWC V2.00 B727,2013-11-14 08:46:00,
2013-11-14 01:51:00,30.9,23.9,30.42,SE,139,3.0,4.0,75,0.00,,,0.00,0,LWC V2.00 B727,2013-11-14 08:51:00,
2013-11-14 01:56:00,30.9,23.9,30.41,SE,139,4.0,4.0,75,0.00,,,0.00,0,LWC V2.00 B727,2013-11-14 08:56:00,
2013-11-14 02:01:00,30.9,23.9,30.41,SE,138,2.0,3.0,75,0.00,,,0.00,0,LWC V2.00 B727,2013-11-14 09:01:00,
2013-11-14 02:06:00,30.9,23.6,30.41,SE,138,5.0,5.0,74,0.00,,,0.00,0,LWC V2.00 B727,2013-11-14 09:06:00,
2013-11-14 02:11:00,30.9,23.9,30.41,SE,139,2.0,3.0,75,0.00,,,0.00,0,LWC V2.00 B727,2013-11-14 09:11:00,
2013-11-14 02:16:00,30.8,23.8,30.40,SE,139,2.0,3.0,75,0.00,,,0.00,0,LWC V2.00 B727,2013-11-14 09:16:00,
2013-11-14 02:21:00,30.8,23.8,30.40,SE,139,3.0,5.0,75,0.00,,,0.00,0,LWC V2.00 B727,2013-11-14 09:21:00,
2013-11-14 02:26:00,30.7,24.0,30.40,SE,138,2.0,4.0,76,0.00,,,0.00,0,LWC V2.00 B727,2013-11-14 09:26:00,
2013-11-14 02:31:00,30.6,24.0,30.39,SE,139,1.0,4.0,76,0.00,,,0.00,0,LWC V2.00 B727,2013-11-14 09:31:00,
2013-11-14 02:36:00,30.6,24.0,30.39,SE,138,3.0,5.0,76,0.00,,,0.00,0,LWC V2.00 B727,2013-11-14 09:36:00,
2013-11-14 02:41:00,30.5,23.9,30.39,SE,138,0.0,1.0,76,0.00,,,0.00,0,LWC V2.00 B727,2013-11-14 09:41:00,
2013-11-14 02:46:00,30.3,23.7,30.39,SE,139,1.0,4.0,76,0.00,,,0.00,0,LWC V2.00 B727,2013-11-14 09:46:00,
2013-11-14 02:51:00,30.1,23.8,30.39,SE,139,2.0,4.0,77,0.00,,,0.00,0,LWC V2.00 B727,2013-11-14 09:51:00,
2013-11-14 02:56:00,30.1,23.8,30.39,SE,138,2.0,3.0,77,0.00,,,0.00,0,LWC V2.00 B727,2013-11-14 09:56:00,
2013-11-14 03:01:00,30.1,23.8,30.39,SE,139,2.0,3.0,77,0.00,,,0.00,0,LWC V2.00 B727,2013-11-14 10:01:00,
2013-11-14 03:06:00,30.0,23.7,30.39,SE,139,2.0,3.0,77,0.00,,,0.00,0,LWC V2.00 B727,2013-11-14 10:06:00,
2013-11-14 03:11:00,30.0,24.0,30.38,SE,139,3.0,4.0,78,0.00,,,0.00,0,LWC V2.00 B727,2013-11-14 10:11:00,
2013-11-14 03:16:00,29.9,23.6,30.39,SE,138,2.0,3.0,77,0.00,,,0.00,0,LWC V2.00 B727,2013-11-14 10:16:00,
2013-11-14 03:21:00,29.8,23.5,30.39,SE,139,2.0,3.0,77,0.00,,,0.00,0,LWC V2.00 B727,2013-11-14 10:21:00,
2013-11-14 03:26:00,29.7,23.7,30.38,SE,139,2.0,5.0,78,0.00,,,0.00,0,LWC V2.00 B727,2013-11-14 10:26:00,
2013-11-14 03:31:00,29.6,23.6,30.38,SE,139,2.0,5.0,78,0.00,,,0.00,0,LWC V2.00 B727,2013-11-14 10:31:00,
2013-11-14 03:36:00,29.7,24.0,30.38,SE,138,3.0,4.0,79,0.00,,,0.00,0,LWC V2.00 B727,2013-11-14 10:36:00,
2013-11-14 03:41:00,29.6,23.9,30.38,SE,138,4.0,4.0,79,0.00,,,0.00,0,LWC V2.00 B727,2013-11-14 10:41:00,
2013-11-14 03:46:00,29.7,24.0,30.38,SE,139,2.0,4.0,79,0.00,,,0.00,0,LWC V2.00 B727,2013-11-14 10:46:00,
2013-11-14 03:51:00,29.6,23.9,30.38,SE,139,2.0,3.0,79,0.00,,,0.00,0,LWC V2.00 B727,2013-11-14 10:51:00,
2013-11-14 03:56:00,29.4,23.4,30.38,SE,139,2.0,4.0,78,0.00,,,0.00,0,LWC V2.00 B727,2013-11-14 10:56:00,
2013-11-14 04:01:00,29.3,23.6,30.38,SE,139,1.0,2.0,79,0.00,,,0.00,0,LWC V2.00 B727,2013-11-14 11:01:00,
2013-11-14 04:06:00,29.3,23.9,30.38,SE,139,3.0,4.0,80,0.00,,,0.00,0,LWC V2.00 B727,2013-11-14 11:06:00,
2013-11-14 04:11:00,29.3,23.9,30.38,SE,138,2.0,3.0,80,0.00,,,0.00,0,LWC V2.00 B727,2013-11-14 11:11:00,
2013-11-14 04:16:00,29.3,23.9,30.38,SE,139,2.0,4.0,80,0.00,,,0.00,0,LWC V2.00 B727,2013-11-14 11:16:00,
2013-11-14 04:21:00,29.4,24.0,30.37,SE,139,2.0,4.0,80,0.00,,,0.00,0,LWC V2.00 B727,2013-11-14 11:21:00,
2013-11-14 04:26:00,29.4,24.0,30.37,SE,140,5.0,6.0,80,0.00,,,0.00,0,LWC V2.00 B727,2013-11-14 11:26:00,
2013-11-14 04:31:00,29.4,24.0,30.38,SE,140,2.0,4.0,80,0.00,,,0.00,0,LWC V2.00 B727,2013-11-14 11:31:00,
2013-11-14 04:36:00,29.4,24.0,30.37,SE,140,2.0,3.0,80,0.00,,,0.00,0,LWC V2.00 B727,2013-11-14 11:36:00,
2013-11-14 04:41:00,29.4,24.0,30.37,SE,140,2.0,3.0,80,0.00,,,0.00,0,LWC V2.00 B727,2013-11-14 11:41:00,
2013-11-14 04:46:00,29.2,23.5,30.37,SE,140,3.0,3.0,79,0.00,,,0.00,0,LWC V2.00 B727,2013-11-14 11:46:00,
2013-11-14 04:51:00,28.9,23.2,30.37,SE,140,2.0,2.0,79,0.00,,,0.00,0,LWC V2.00 B727,2013-11-14 11:51:00,
2013-11-14 04:56:00,28.7,23.3,30.37,SE,140,2.0,3.0,80,0.00,,,0.00,0,LWC V2.00 B727,2013-11-14 11:56:00,
2013-11-14 05:01:00,28.6,23.2,30.37,SE,140,3.0,4.0,80,0.00,,,0.00,0,LWC V2.00 B727,2013-11-14 12:01:00,
2013-11-14 05:06:00,28.6,23.5,30.37,SE,140,3.0,5.0,81,0.00,,,0.00,0,LWC V2.00 B727,2013-11-14 12:06:00,
2013-11-14 05:11:00,28.6,23.5,30.37,SE,140,2.0,4.0,81,0.00,,,0.00,0,LWC V2.00 B727,2013-11-14 12:11:00,
2013-11-14 05:16:00,28.7,23.6,30.37,SE,141,2.0,3.0,81,0.00,,,0.00,0,LWC V2.00 B727,2013-11-14 12:16:00,
2013-11-14 05:21:00,28.7,23.6,30.37,SE,141,3.0,3.0,81,0.00,,,0.00,0,LWC V2.00 B727,2013-11-14 12:21:00,
2013-11-14 05:26:00,28.8,23.7,30.37,SE,141,4.0,5.0,81,0.00,,,0.00,0,LWC V2.00 B727,2013-11-14 12:26:00,
2013-11-14 05:31:00,28.8,23.7,30.37,SE,141,2.0,4.0,81,0.00,,,0.00,0,LWC V2.00 B727,2013-11-14 12:31:00,
2013-11-14 05:36:00,28.9,23.8,30.37,SE,140,3.0,4.0,81,0.00,,,0.00,0,LWC V2.00 B727,2013-11-14 12:36:00,
2013-11-14 05:41:00,28.9,23.5,30.37,SE,140,2.0,3.0,80,0.00,,,0.00,0,LWC V2.00 B727,2013-11-14 12:41:00,
2013-11-14 05:46:00,28.9,23.5,30.37,SE,140,2.0,4.0,80,0.00,,,0.00,0,LWC V2.00 B727,2013-11-14 12:46:00,
2013-11-14 05:51:00,28.8,23.1,30.38,SE,140,1.0,3.0,79,0.00,,,0.00,0,LWC V2.00 B727,2013-11-14 12:51:00,
2013-11-14 05:56:00,28.6,23.2,30.38,SE,140,3.0,3.0,80,0.00,,,0.00,0,LWC V2.00 B727,2013-11-14 12:56:00,
2013-11-14 06:01:00,28.5,23.1,30.38,SE,140,3.0,4.0,80,0.00,,,0.00,0,LWC V2.00 B727,2013-11-14 13:01:00,
2013-11-14 06:06:00,28.4,23.0,30.39,SE,140,4.0,4.0,80,0.00,,,0.00,0,LWC V2.00 B727,2013-11-14 13:06:00,
2013-11-14 06:11:00,28.3,22.9,30.39,SE,140,0.0,2.0,80,0.00,,,0.00,0,LWC V2.00 B727,2013-11-14 13:11:00,
2013-11-14 06:16:00,28.2,22.5,30.39,SE,140,2.0,3.0,79,0.00,,,0.00,0,LWC V2.00 B727,2013-11-14 13:16:00,
2013-11-14 06:21:00,27.9,22.2,30.39,SE,140,1.0,2.0,79,0.00,,,0.00,0,LWC V2.00 B727,2013-11-14 13:21:00,
2013-11-14 06:26:00,27.7,22.1,30.40,SE,140,2.0,2.0,79,0.00,,,0.00,0,LWC V2.00 B727,2013-11-14 13:26:00,
2013-11-14 06:31:00,27.4,22.1,30.40,SE,140,2.0,2.0,80,0.00,,,0.00,0,LWC V2.00 B727,2013-11-14 13:31:00,
2013-11-14 06:36:00,27.4,22.1,30.39,SE,140,3.0,3.0,80,0.00,,,0.00,0,LWC V2.00 B727,2013-11-14 13:36:00,
2013-11-14 06:41:00,27.4,22.1,30.39,SE,140,1.0,2.0,80,0.00,,,0.00,0,LWC V2.00 B727,2013-11-14 13:41:00,
2013-11-14 06:46:00,27.3,22.0,30.39,SE,140,2.0,3.0,80,0.00,,,0.00,5,LWC V2.00 B727,2013-11-14 13:46:00,
2013-11-14 06:51:00,27.3,22.3,30.40,SE,140,2.0,3.0,81,0.00,,,0.00,7,LWC V2.00 B727,2013-11-14 13:51:00,
2013-11-14 06:56:00,27.4,22.6,30.40,SE,140,4.0,4.0,82,0.00,,,0.00,9,LWC V2.00 B727,2013-11-14 13:56:00,
2013-11-14 07:01:00,27.6,22.8,30.40,SE,140,0.0,1.0,82,0.00,,,0.00,11,LWC V2.00 B727,2013-11-14 14:01:00,
2013-11-14 07:06:00,27.6,22.8,30.40,SE,140,0.0,0.0,82,0.00,,,0.00,19,LWC V2.00 B727,2013-11-14 14:06:00,
2013-11-14 07:11:00,27.6,22.8,30.40,SE,140,2.0,3.0,82,0.00,,,0.00,28,LWC V2.00 B727,2013-11-14 14:11:00,
2013-11-14 07:16:00,27.6,22.8,30.40,SE,140,0.0,0.0,82,0.00,,,0.00,35,LWC V2.00 B727,2013-11-14 14:16:00,
2013-11-14 07:21:00,27.7,22.9,30.41,SE,140,0.0,0.0,82,0.00,,,0.00,39,LWC V2.00 B727,2013-11-14 14:21:00,
2013-11-14 07:26:00,27.9,23.4,30.40,SE,140,3.0,3.0,83,0.00,,,0.00,40,LWC V2.00 B727,2013-11-14 14:26:00,
2013-11-14 07:31:00,28.1,23.6,30.40,SE,140,0.0,3.0,83,0.00,,,0.00,42,LWC V2.00 B727,2013-11-14 14:31:00,
2013-11-14 07:36:00,28.4,23.9,30.40,SE,140,2.0,2.0,83,0.00,,,0.00,42,LWC V2.00 B727,2013-11-14 14:36:00,
2013-11-14 07:41:00,28.8,24.3,30.40,SE,140,0.0,0.0,83,0.00,,,0.00,42,LWC V2.00 B727,2013-11-14 14:41:00,
2013-11-14 07:46:00,29.0,24.5,30.40,SE,140,0.0,2.0,83,0.00,,,0.00,44,LWC V2.00 B727,2013-11-14 14:46:00,
2013-11-14 07:47:00,29.0,24.5,30.40,SE,140,1.0,2.0,83,0.00,,,0.00,46,LWC V2.00 B727,2013-11-14 14:47:00,
2013-11-14 07:52:00,29.2,24.4,30.40,SE,140,0.0,2.0,82,0.00,,,0.00,49,LWC V2.00 B727,2013-11-14 14:52:00,
2013-11-14 07:57:00,29.5,24.7,30.41,SE,140,0.0,0.0,82,0.00,,,0.00,54,LWC V2.00 B727,2013-11-14 14:57:00,
2013-11-14 08:02:00,29.7,25.2,30.41,SE,140,2.0,2.0,83,0.00,,,0.00,60,LWC V2.00 B727,2013-11-14 15:02:00,
2013-11-14 08:07:00,30.0,25.5,30.41,SE,140,1.0,3.0,83,0.00,,,0.00,65,LWC V2.00 B727,2013-11-14 15:07:00,
2013-11-14 08:12:00,30.2,25.7,30.41,SE,140,1.0,3.0,83,0.00,,,0.00,72,LWC V2.00 B727,2013-11-14 15:12:00,
2013-11-14 08:17:00,30.6,26.1,30.41,SE,140,2.0,3.0,83,0.00,,,0.00,77,LWC V2.00 B727,2013-11-14 15:17:00,
2013-11-14 08:22:00,30.9,26.4,30.40,SE,140,1.0,1.0,83,0.00,,,0.00,90,LWC V2.00 B727,2013-11-14 15:22:00,
2013-11-14 08:27:00,31.3,26.7,30.41,SE,140,1.0,3.0,83,0.00,,,0.00,100,LWC V2.00 B727,2013-11-14 15:27:00,
2013-11-14 08:32:00,31.7,27.1,30.41,SE,140,2.0,2.0,83,0.00,,,0.00,105,LWC V2.00 B727,2013-11-14 15:32:00,
2013-11-14 08:37:00,32.0,26.8,30.41,SE,140,3.0,4.0,81,0.00,,,0.00,113,LWC V2.00 B727,2013-11-14 15:37:00,
2013-11-14 08:42:00,32.4,26.9,30.41,SE,140,2.0,3.0,80,0.00,,,0.00,123,LWC V2.00 B727,2013-11-14 15:42:00,
2013-11-14 08:47:00,32.8,27.0,30.41,SE,140,0.0,0.0,79,0.00,,,0.00,132,LWC V2.00 B727,2013-11-14 15:47:00,
2013-11-14 08:52:00,33.2,27.1,30.41,SE,140,1.0,2.0,78,0.00,,,0.00,141,LWC V2.00 B727,2013-11-14 15:52:00,
2013-11-14 08:57:00,33.7,27.3,30.41,SE,140,0.0,0.0,77,0.00,,,0.00,142,LWC V2.00 B727,2013-11-14 15:57:00,
2013-11-14 09:02:00,34.2,27.8,30.41,SE,140,1.0,3.0,77,0.00,,,0.00,149,LWC V2.00 B727,2013-11-14 16:02:00,
2013-11-14 09:07:00,34.5,28.0,30.41,SE,140,0.0,0.0,77,0.00,,,0.00,158,LWC V2.00 B727,2013-11-14 16:07:00,
2013-11-14 09:12:00,35.0,27.9,30.41,SE,140,0.0,0.0,75,0.00,,,0.00,163,LWC V2.00 B727,2013-11-14 16:12:00,
2013-11-14 09:17:00,35.3,28.2,30.41,SE,140,1.0,2.0,75,0.00,,,0.00,172,LWC V2.00 B727,2013-11-14 16:17:00,
2013-11-14 09:22:00,35.8,29.0,30.41,NE,48,0.0,1.0,76,0.00,,,0.00,181,LWC V2.00 B727,2013-11-14 16:22:00,
2013-11-14 09:27:00,36.1,29.3,30.40,NE,48,0.0,2.0,76,0.00,,,0.00,190,LWC V2.00 B727,2013-11-14 16:27:00,
2013-11-14 09:32:00,36.4,29.6,30.40,NE,48,0.0,0.0,76,0.00,,,0.00,188,LWC V2.00 B727,2013-11-14 16:32:00,
2013-11-14 09:37:00,36.7,29.9,30.40,ENE,78,0.0,1.0,76,0.00,,,0.00,186,LWC V2.00 B727,2013-11-14 16:37:00,
2013-11-14 09:42:00,37.0,30.2,30.40,ENE,71,3.0,3.0,76,0.00,,,0.00,204,LWC V2.00 B727,2013-11-14 16:42:00,
2013-11-14 09:47:00,37.3,30.4,30.40,NE,49,4.0,4.0,76,0.00,,,0.00,220,LWC V2.00 B727,2013-11-14 16:47:00,
2013-11-14 09:52:00,37.5,30.3,30.40,NNE,28,1.0,2.0,75,0.00,,,0.00,221,LWC V2.00 B727,2013-11-14 16:52:00,
2013-11-14 09:57:00,37.7,30.2,30.40,NNE,26,0.0,2.0,74,0.00,,,0.00,237,LWC V2.00 B727,2013-11-14 16:57:00,
2013-11-14 10:02:00,37.8,30.3,30.40,NNE,26,2.0,2.0,74,0.00,,,0.00,216,LWC V2.00 B727,2013-11-14 17:02:00,
2013-11-14 10:07:00,38.0,30.1,30.40,NNE,25,0.0,0.0,73,0.00,,,0.00,176,LWC V2.00 B727,2013-11-14 17:07:00,
2013-11-14 10:12:00,38.2,30.0,30.40,NNE,26,0.0,0.0,72,0.00,,,0.00,162,LWC V2.00 B727,2013-11-14 17:12:00,
2013-11-14 10:17:00,38.3,30.1,30.40,NNE,26,0.0,0.0,72,0.00,,,0.00,193,LWC V2.00 B727,2013-11-14 17:17:00,
2013-11-14 10:22:00,38.8,30.9,30.40,NNE,25,2.0,3.0,73,0.00,,,0.00,515,LWC V2.00 B727,2013-11-14 17:22:00,
2013-11-14 10:27:00,39.6,31.0,30.39,NNE,24,1.0,2.0,71,0.00,,,0.00,540,LWC V2.00 B727,2013-11-14 17:27:00,
2013-11-14 10:32:00,40.7,31.0,30.39,North,355,0.0,2.0,68,0.00,,,0.00,512,LWC V2.00 B727,2013-11-14 17:32:00,
2013-11-14 10:37:00,41.3,30.8,30.39,NW,310,0.0,4.0,66,0.00,,,0.00,559,LWC V2.00 B727,2013-11-14 17:37:00,
2013-11-14 10:42:00,42.0,31.5,30.38,NW,310,0.0,2.0,66,0.00,,,0.00,605,LWC V2.00 B727,2013-11-14 17:42:00,
2013-11-14 10:47:00,43.1,31.8,30.38,NW,309,0.0,1.0,64,0.00,,,0.00,622,LWC V2.00 B727,2013-11-14 17:47:00,
2013-11-14 10:52:00,44.0,31.8,30.38,WNW,303,3.0,3.0,62,0.00,,,0.00,647,LWC V2.00 B727,2013-11-14 17:52:00,
2013-11-14 10:57:00,44.8,31.4,30.38,NW,314,3.0,4.0,59,0.00,,,0.00,649,LWC V2.00 B727,2013-11-14 17:57:00,
2013-11-14 11:02:00,45.2,30.9,30.38,NW,304,3.0,5.0,57,0.00,,,0.00,657,LWC V2.00 B727,2013-11-14 18:02:00,
2013-11-14 11:07:00,45.6,31.3,30.37,NW,319,2.0,3.0,57,0.00,,,0.00,649,LWC V2.00 B727,2013-11-14 18:07:00,
2013-11-14 11:12:00,46.1,32.2,30.37,NNW,346,2.0,2.0,58,0.00,,,0.00,645,LWC V2.00 B727,2013-11-14 18:12:00,
2013-11-14 11:17:00,47.0,31.2,30.37,WSW,238,4.0,4.0,54,0.00,,,0.00,640,LWC V2.00 B727,2013-11-14 18:17:00,
2013-11-14 11:22:00,47.4,30.7,30.36,WNW,296,2.0,8.0,52,0.00,,,0.00,649,LWC V2.00 B727,2013-11-14 18:22:00,
2013-11-14 11:27:00,47.5,30.8,30.36,SW,234,1.0,3.0,52,0.00,,,0.00,659,LWC V2.00 B727,2013-11-14 18:27:00,
2013-11-14 11:32:00,47.7,30.9,30.35,SW,229,3.0,4.0,52,0.00,,,0.00,478,LWC V2.00 B727,2013-11-14 18:32:00,
2013-11-14 11:37:00,47.8,30.6,30.35,WNW,299,1.0,6.0,51,0.00,,,0.00,680,LWC V2.00 B727,2013-11-14 18:37:00,
2013-11-14 11:42:00,47.7,30.9,30.34,WSW,255,1.0,3.0,52,0.00,,,0.00,482,LWC V2.00 B727,2013-11-14 18:42:00,
2013-11-14 11:47:00,47.8,30.6,30.34,WSW,254,2.0,2.0,51,0.00,,,0.00,622,LWC V2.00 B727,2013-11-14 18:47:00,
2013-11-14 11:52:00,48.0,30.7,30.33,NNW,336,1.0,2.0,51,0.00,,,0.00,605,LWC V2.00 B727,2013-11-14 18:52:00,
2013-11-14 11:57:00,48.3,30.5,30.33,NNW,329,0.0,4.0,50,0.00,,,0.00,555,LWC V2.00 B727,2013-11-14 18:57:00,
2013-11-14 12:02:00,48.6,31.3,30.33,SW,235,4.0,5.0,51,0.00,,,0.00,659,LWC V2.00 B727,2013-11-14 19:02:00,
2013-11-14 12:07:00,49.4,30.5,30.33,WNW,286,4.0,4.0,48,0.00,,,0.00,687,LWC V2.00 B727,2013-11-14 19:07:00,
2013-11-14 12:12:00,49.9,31.5,30.33,NNW,340,0.0,5.0,49,0.00,,,0.00,694,LWC V2.00 B727,2013-11-14 19:12:00,
2013-11-14 12:17:00,50.9,31.9,30.32,WSW,237,3.0,4.0,48,0.00,,,0.00,719,LWC V2.00 B727,2013-11-14 19:17:00,
2013-11-14 12:22:00,51.2,31.7,30.32,WNW,294,8.0,8.0,47,0.00,,,0.00,737,LWC V2.00 B727,2013-11-14 19:22:00,
2013-11-14 12:27:00,51.0,31.0,30.32,WNW,290,6.0,7.0,46,0.00,,,0.00,663,LWC V2.00 B727,2013-11-14 19:27:00,
2013-11-14 12:32:00,50.5,30.0,30.31,West,270,2.0,9.0,45,0.00,,,0.00,436,LWC V2.00 B727,2013-11-14 19:32:00,
2013-11-14 12:37:00,50.0,29.5,30.31,WSW,249,0.0,2.0,45,0.00,,,0.00,352,LWC V2.00 B727,2013-11-14 19:37:00,
2013-11-14 12:42:00,49.6,29.1,30.31,WSW,249,0.0,3.0,45,0.00,,,0.00,207,LWC V2.00 B727,2013-11-14 19:42:00,
2013-11-14 12:47:00,49.0,29.1,30.31,WNW,288,2.0,3.0,46,0.00,,,0.00,179,LWC V2.00 B727,2013-11-14 19:47:00,
2013-11-14 12:52:00,48.4,29.1,30.31,WNW,287,0.0,2.0,47,0.00,,,0.00,515,LWC V2.00 B727,2013-11-14 19:52:00,
2013-11-14 12:57:00,48.6,29.8,30.31,SSW,209,4.0,6.0,48,0.00,,,0.00,443,LWC V2.00 B727,2013-11-14 19:57:00,
2013-11-14 13:02:00,49.0,29.1,30.31,SW,216,1.0,6.0,46,0.00,,,0.00,350,LWC V2.00 B727,2013-11-14 20:02:00,
2013-11-14 13:07:00,50.0,30.6,30.30,West,276,0.0,2.0,47,0.00,,,0.00,694,LWC V2.00 B727,2013-11-14 20:07:00,
2013-11-14 13:12:00,50.8,29.7,30.30,SSW,210,6.0,7.0,44,0.00,,,0.00,483,LWC V2.00 B727,2013-11-14 20:12:00,
2013-11-14 13:17:00,51.2,29.5,30.29,WSW,256,4.0,5.0,43,0.00,,,0.00,677,LWC V2.00 B727,2013-11-14 20:17:00,
2013-11-14 13:22:00,52.2,29.2,30.29,WSW,237,2.0,6.0,41,0.00,,,0.00,638,LWC V2.00 B727,2013-11-14 20:22:00,
2013-11-14 13:27:00,52.9,29.8,30.29,WNW,299,2.0,6.0,41,0.00,,,0.00,693,LWC V2.00 B727,2013-11-14 20:27:00,
2013-11-14 13:32:00,53.5,31.0,30.29,NNW,327,9.0,9.0,42,0.00,,,0.00,735,LWC V2.00 B727,2013-11-14 20:32:00,
2013-11-14 13:37:00,53.6,28.0,30.29,West,267,2.0,4.0,37,0.00,,,0.00,635,LWC V2.00 B727,2013-11-14 20:37:00,
2013-11-14 13:42:00,53.4,27.8,30.29,WNW,293,4.0,6.0,37,0.00,,,0.00,483,LWC V2.00 B727,2013-11-14 20:42:00,
2013-11-14 13:47:00,53.0,28.1,30.29,SW,222,2.0,6.0,38,0.00,,,0.00,475,LWC V2.00 B727,2013-11-14 20:47:00,
2013-11-14 13:52:00,52.8,27.3,30.29,WNW,300,2.0,6.0,37,0.00,,,0.00,501,LWC V2.00 B727,2013-11-14 20:52:00,
2013-11-14 13:57:00,52.6,28.4,30.29,WSW,246,5.0,16.0,39,0.00,,,0.00,552,LWC V2.00 B727,2013-11-14 20:57:00,
2013-11-14 14:02:00,52.1,27.3,30.29,WNW,288,4.0,5.0,38,0.00,,,0.00,454,LWC V2.00 B727,2013-11-14 21:02:00,
2013-11-14 14:07:00,51.9,27.7,30.29,West,267,3.0,7.0,39,0.00,,,0.00,489,LWC V2.00 B727,2013-11-14 21:07:00,
2013-11-14 14:12:00,51.6,28.1,30.29,WNW,296,5.0,8.0,40,0.00,,,0.00,457,LWC V2.00 B727,2013-11-14 21:12:00,
2013-11-14 14:17:00,51.4,29.1,30.29,WNW,300,4.0,6.0,42,0.00,,,0.00,461,LWC V2.00 B727,2013-11-14 21:17:00,
2013-11-14 14:22:00,51.4,28.5,30.29,WNW,291,4.0,7.0,41,0.00,,,0.00,450,LWC V2.00 B727,2013-11-14 21:22:00,
2013-11-14 14:27:00,51.4,27.3,30.29,WNW,292,2.0,7.0,39,0.00,,,0.00,436,LWC V2.00 B727,2013-11-14 21:27:00,
2013-11-14 14:32:00,51.2,28.9,30.29,West,269,2.0,6.0,42,0.00,,,0.00,422,LWC V2.00 B727,2013-11-14 21:32:00,
2013-11-14 14:37:00,51.0,28.1,30.29,WNW,300,2.0,8.0,41,0.00,,,0.00,410,LWC V2.00 B727,2013-11-14 21:37:00,
2013-11-14 14:42:00,51.0,28.1,30.29,West,265,1.0,7.0,41,0.00,,,0.00,394,LWC V2.00 B727,2013-11-14 21:42:00,
2013-11-14 14:47:00,51.0,28.1,30.29,WNW,293,0.0,9.0,41,0.00,,,0.00,380,LWC V2.00 B727,2013-11-14 21:47:00,
2013-11-14 14:52:00,51.1,26.4,30.29,WSW,254,2.0,7.0,38,0.00,,,0.00,364,LWC V2.00 B727,2013-11-14 21:52:00,
2013-11-14 14:57:00,51.0,26.3,30.29,WSW,242,5.0,7.0,38,0.00,,,0.00,353,LWC V2.00 B727,2013-11-14 21:57:00,
2013-11-14 15:02:00,50.9,26.2,30.30,SW,225,4.0,5.0,38,0.00,,,0.00,339,LWC V2.00 B727,2013-11-14 22:02:00,
2013-11-14 15:07:00,50.9,24.2,30.30,West,276,4.0,5.0,35,0.00,,,0.00,329,LWC V2.00 B727,2013-11-14 22:07:00,
2013-11-14 15:12:00,50.9,24.9,30.30,West,277,0.0,8.0,36,0.00,,,0.00,325,LWC V2.00 B727,2013-11-14 22:12:00,
2013-11-14 15:17:00,50.7,24.1,30.30,West,259,4.0,5.0,35,0.00,,,0.00,318,LWC V2.00 B727,2013-11-14 22:17:00,
2013-11-14 15:22:00,50.5,25.2,30.30,SW,226,2.0,5.0,37,0.00,,,0.00,91,LWC V2.00 B727,2013-11-14 22:22:00,
2013-11-14 15:27:00,50.3,25.0,30.30,WSW,248,3.0,4.0,37,0.00,,,0.00,88,LWC V2.00 B727,2013-11-14 22:27:00,
2013-11-14 15:32:00,50.0,25.4,30.30,SW,234,4.0,5.0,38,0.00,,,0.00,91,LWC V2.00 B727,2013-11-14 22:32:00,
2013-11-14 15:37:00,49.6,25.7,30.30,SW,233,0.0,3.0,39,0.00,,,0.00,76,LWC V2.00 B727,2013-11-14 22:37:00,
2013-11-14 15:42:00,49.2,25.3,30.30,SW,234,0.0,1.0,39,0.00,,,0.00,65,LWC V2.00 B727,2013-11-14 22:42:00,
2013-11-14 15:47:00,48.9,25.7,30.30,West,265,0.0,2.0,40,0.00,,,0.00,76,LWC V2.00 B727,2013-11-14 22:47:00,
2013-11-14 15:52:00,48.5,26.5,30.31,West,265,0.0,0.0,42,0.00,,,0.00,70,LWC V2.00 B727,2013-11-14 22:52:00,
2013-11-14 15:57:00,48.3,26.3,30.30,West,265,0.0,1.0,42,0.00,,,0.00,65,LWC V2.00 B727,2013-11-14 22:57:00,
2013-11-14 16:02:00,48.1,26.1,30.30,West,265,0.0,0.0,42,0.00,,,0.00,49,LWC V2.00 B727,2013-11-14 23:02:00,
2013-11-14 16:07:00,47.9,27.0,30.30,West,265,0.0,1.0,44,0.00,,,0.00,107,LWC V2.00 B727,2013-11-14 23:07:00,
2013-11-14 16:12:00,47.8,27.0,30.30,SW,233,0.0,5.0,44,0.00,,,0.00,93,LWC V2.00 B727,2013-11-14 23:12:00,
2013-11-14 16:17:00,47.9,27.0,30.30,SW,233,0.0,1.0,44,0.00,,,0.00,84,LWC V2.00 B727,2013-11-14 23:17:00,
2013-11-14 16:22:00,48.0,27.1,30.30,SSW,203,2.0,5.0,44,0.00,,,0.00,44,LWC V2.00 B727,2013-11-14 23:22:00,
2013-11-14 16:27:00,48.0,27.1,30.30,SSW,193,0.0,3.0,44,0.00,,,0.00,28,LWC V2.00 B727,2013-11-14 23:27:00,
2013-11-14 16:32:00,47.8,26.4,30.30,SW,219,3.0,6.0,43,0.00,,,0.00,19,LWC V2.00 B727,2013-11-14 23:32:00,
2013-11-14 16:37:00,47.6,26.2,30.30,SW,218,1.0,2.0,43,0.00,,,0.00,14,LWC V2.00 B727,2013-11-14 23:37:00,
2013-11-14 16:42:00,47.3,26.5,30.30,SW,217,1.0,5.0,44,0.00,,,0.00,12,LWC V2.00 B727,2013-11-14 23:42:00,
2013-11-14 16:47:00,46.9,26.1,30.30,SW,221,3.0,4.0,44,0.00,,,0.00,9,LWC V2.00 B727,2013-11-14 23:47:00,
2013-11-14 16:52:00,46.4,26.2,30.30,SSW,207,2.0,4.0,45,0.00,,,0.00,7,LWC V2.00 B727,2013-11-14 23:52:00,
2013-11-14 16:57:00,45.8,26.2,30.30,South,188,2.0,4.0,46,0.00,,,0.00,0,LWC V2.00 B727,2013-11-14 23:57:00,
2013-11-14 17:02:00,45.3,26.3,30.30,SSW,197,1.0,5.0,47,0.00,,,0.00,0,LWC V2.00 B727,2013-11-15 00:02:00,
2013-11-14 17:07:00,44.9,26.4,30.30,SSW,197,4.0,4.0,48,0.00,,,0.00,0,LWC V2.00 B727,2013-11-15 00:07:00,
2013-11-14 17:12:00,44.5,26.0,30.30,SSW,196,2.0,3.0,48,0.00,,,0.00,0,LWC V2.00 B727,2013-11-15 00:12:00,
2013-11-14 17:17:00,44.1,26.2,30.30,SSW,196,0.0,3.0,49,0.00,,,0.00,0,LWC V2.00 B727,2013-11-15 00:17:00,
2013-11-14 17:22:00,43.6,26.2,30.30,SSW,197,1.0,2.0,50,0.00,,,0.00,0,LWC V2.00 B727,2013-11-15 00:22:00,
2013-11-14 17:27:00,43.2,25.8,30.30,SSW,197,0.0,1.0,50,0.00,,,0.00,0,LWC V2.00 B727,2013-11-15 00:27:00,
2013-11-14 17:32:00,42.7,25.8,30.30,SSW,196,3.0,5.0,51,0.00,,,0.00,0,LWC V2.00 B727,2013-11-15 00:32:00,
2013-11-14 17:37:00,42.2,25.9,30.30,SSW,196,2.0,4.0,52,0.00,,,0.00,0,LWC V2.00 B727,2013-11-15 00:37:00,
2013-11-14 17:42:00,41.8,25.5,30.30,SSW,195,3.0,5.0,52,0.00,,,0.00,0,LWC V2.00 B727,2013-11-15 00:42:00,
2013-11-14 17:47:00,41.5,25.7,30.31,South,188,2.0,3.0,53,0.00,,,0.00,0,LWC V2.00 B727,2013-11-15 00:47:00,
2013-11-14 17:52:00,41.2,25.8,30.31,SSW,198,4.0,4.0,54,0.00,,,0.00,0,LWC V2.00 B727,2013-11-15 00:52:00,
2013-11-14 17:57:00,40.9,25.6,30.31,SSW,198,0.0,3.0,54,0.00,,,0.00,0,LWC V2.00 B727,2013-11-15 00:57:00,
2013-11-14 18:02:00,40.7,25.8,30.31,SSW,198,0.0,1.0,55,0.00,,,0.00,0,LWC V2.00 B727,2013-11-15 01:02:00,
2013-11-14 18:07:00,40.2,25.3,30.32,SSW,198,2.0,2.0,55,0.00,,,0.00,0,LWC V2.00 B727,2013-11-15 01:07:00,
2013-11-14 18:12:00,39.4,25.0,30.32,SSW,198,0.0,2.0,56,0.00,,,0.00,0,LWC V2.00 B727,2013-11-15 01:12:00,
2013-11-14 18:17:00,38.5,25.0,30.32,SSW,198,0.0,2.0,58,0.00,,,0.00,0,LWC V2.00 B727,2013-11-15 01:17:00,
2013-11-14 18:22:00,37.9,24.9,30.32,SSW,198,0.0,0.0,59,0.00,,,0.00,0,LWC V2.00 B727,2013-11-15 01:22:00,
2013-11-14 18:27:00,37.4,24.8,30.32,SSW,198,1.0,1.0,60,0.00,,,0.00,0,LWC V2.00 B727,2013-11-15 01:27:00,
2013-11-14 18:32:00,37.0,24.8,30.32,SSW,198,0.0,2.0,61,0.00,,,0.00,0,LWC V2.00 B727,2013-11-15 01:32:00,
2013-11-14 18:37:00,36.8,24.6,30.33,SSW,198,0.0,0.0,61,0.00,,,0.00,0,LWC V2.00 B727,2013-11-15 01:37:00,
2013-11-14 18:42:00,36.6,24.4,30.33,SSW,198,0.0,0.0,61,0.00,,,0.00,0,LWC V2.00 B727,2013-11-15 01:42:00,
2013-11-14 18:47:00,36.3,24.2,30.33,SSW,198,0.0,2.0,61,0.00,,,0.00,0,LWC V2.00 B727,2013-11-15 01:47:00,
2013-11-14 18:52:00,35.8,24.1,30.33,SSW,198,0.0,0.0,62,0.00,,,0.00,0,LWC V2.00 B727,2013-11-15 01:52:00,
2013-11-14 18:57:00,35.3,24.0,30.33,SSW,198,0.0,0.0,63,0.00,,,0.00,0,LWC V2.00 B727,2013-11-15 01:57:00,
2013-11-14 19:02:00,34.8,23.9,30.33,SSW,198,0.0,0.0,64,0.00,,,0.00,0,LWC V2.00 B727,2013-11-15 02:02:00,
2013-11-14 19:07:00,34.4,23.9,30.33,SSW,198,2.0,4.0,65,0.00,,,0.00,0,LWC V2.00 B727,2013-11-15 02:07:00,
2013-11-14 19:12:00,34.1,24.0,30.33,SSW,198,0.0,2.0,66,0.00,,,0.00,0,LWC V2.00 B727,2013-11-15 02:12:00,
2013-11-14 19:17:00,33.7,23.6,30.33,SSW,198,0.0,0.0,66,0.00,,,0.00,0,LWC V2.00 B727,2013-11-15 02:17:00,
2013-11-14 19:22:00,33.4,23.6,30.33,SSW,198,0.0,2.0,67,0.00,,,0.00,0,LWC V2.00 B727,2013-11-15 02:22:00,
2013-11-14 19:27:00,33.2,23.4,30.33,SSW,198,0.0,3.0,67,0.00,,,0.00,0,LWC V2.00 B727,2013-11-15 02:27:00,
2013-11-14 19:32:00,33.0,23.6,30.33,SSW,198,0.0,1.0,68,0.00,,,0.00,0,LWC V2.00 B727,2013-11-15 02:32:00,
2013-11-14 19:37:00,32.9,23.5,30.33,SSW,198,2.0,3.0,68,0.00,,,0.00,0,LWC V2.00 B727,2013-11-15 02:37:00,
2013-11-14 19:42:00,32.8,23.8,30.33,SSW,198,1.0,2.0,69,0.00,,,0.00,0,LWC V2.00 B727,2013-11-15 02:42:00,
2013-11-14 19:47:00,32.8,23.8,30.33,SSW,198,3.0,3.0,69,0.00,,,0.00,0,LWC V2.00 B727,2013-11-15 02:47:00,
2013-11-14 19:52:00,32.8,23.8,30.33,SSW,198,0.0,0.0,69,0.00,,,0.00,0,LWC V2.00 B727,2013-11-15 02:52:00,
2013-11-14 19:57:00,32.9,23.9,30.33,SSW,198,1.0,2.0,69,0.00,,,0.00,0,LWC V2.00 B727,2013-11-15 02:57:00,
2013-11-14 20:02:00,32.8,23.8,30.33,SSW,198,0.0,0.0,69,0.00,,,0.00,0,LWC V2.00 B727,2013-11-15 03:02:00,
2013-11-14 20:07:00,32.7,23.7,30.33,SSW,198,0.0,0.0,69,0.00,,,0.00,0,LWC V2.00 B727,2013-11-15 03:07:00,
2013-11-14 20:12:00,32.6,23.9,30.33,SSW,198,1.0,1.0,70,0.00,,,0.00,0,LWC V2.00 B727,2013-11-15 03:12:00,
2013-11-14 20:17:00,32.5,23.8,30.33,SSW,198,2.0,3.0,70,0.00,,,0.00,0,LWC V2.00 B727,2013-11-15 03:17:00,
2013-11-14 20:22:00,32.5,24.2,30.33,SSW,198,0.0,2.0,71,0.00,,,0.00,0,LWC V2.00 B727,2013-11-15 03:22:00,
2013-11-14 20:27:00,32.5,24.2,30.33,SSW,198,2.0,3.0,71,0.00,,,0.00,0,LWC V2.00 B727,2013-11-15 03:27:00,
2013-11-14 20:32:00,32.3,23.6,30.33,SSW,198,2.0,3.0,70,0.00,,,0.00,0,LWC V2.00 B727,2013-11-15 03:32:00,
2013-11-14 20:37:00,32.2,23.9,30.32,SSW,198,0.0,2.0,71,0.00,,,0.00,0,LWC V2.00 B727,2013-11-15 03:37:00,
2013-11-14 20:42:00,32.1,23.8,30.32,SSW,198,0.0,2.0,71,0.00,,,0.00,0,LWC V2.00 B727,2013-11-15 03:42:00,
2013-11-14 20:47:00,32.1,24.1,30.32,SSW,198,3.0,3.0,72,0.00,,,0.00,0,LWC V2.00 B727,2013-11-15 03:47:00,
2013-11-14 20:52:00,32.4,24.4,30.32,SE,138,3.0,3.0,72,0.00,,,0.00,0,LWC V2.00 B727,2013-11-15 03:52:00,
2013-11-14 20:57:00,32.6,24.3,30.32,SE,137,4.0,5.0,71,0.00,,,0.00,0,LWC V2.00 B727,2013-11-15 03:57:00,
2013-11-14 21:02:00,32.8,24.4,30.32,SE,137,4.0,4.0,71,0.00,,,0.00,0,LWC V2.00 B727,2013-11-15 04:02:00,
2013-11-14 21:07:00,33.0,24.3,30.32,SE,138,3.0,5.0,70,0.00,,,0.00,0,LWC V2.00 B727,2013-11-15 04:07:00,
2013-11-14 21:12:00,33.2,24.5,30.32,SE,134,6.0,6.0,70,0.00,,,0.00,0,LWC V2.00 B727,2013-11-15 04:12:00,
2013-11-14 21:17:00,33.3,24.6,30.32,SE,136,2.0,6.0,70,0.00,,,0.00,0,LWC V2.00 B727,2013-11-15 04:17:00,
2013-11-14 21:22:00,33.4,24.7,30.32,SE,137,3.0,4.0,70,0.00,,,0.00,0,LWC V2.00 B727,2013-11-15 04:22:00,
2013-11-14 21:27:00,33.2,24.5,30.32,SE,137,3.0,5.0,70,0.00,,,0.00,0,LWC V2.00 B727,2013-11-15 04:27:00,
2013-11-14 21:32:00,33.0,24.3,30.31,SE,137,4.0,5.0,70,0.00,,,0.00,0,LWC V2.00 B727,2013-11-15 04:32:00,
2013-11-14 21:37:00,32.8,24.1,30.32,SE,137,2.0,5.0,70,0.00,,,0.00,0,LWC V2.00 B727,2013-11-15 04:37:00,
2013-11-14 21:42:00,32.6,24.3,30.31,SE,137,2.0,4.0,71,0.00,,,0.00,0,LWC V2.00 B727,2013-11-15 04:42:00,
2013-11-14 21:47:00,32.3,24.0,30.31,SE,138,6.0,6.0,71,0.00,,,0.00,0,LWC V2.00 B727,2013-11-15 04:47:00,
2013-11-14 21:52:00,32.3,24.3,30.31,SE,138,3.0,5.0,72,0.00,,,0.00,0,LWC V2.00 B727,2013-11-15 04:52:00,
2013-11-14 21:57:00,32.2,24.2,30.31,SE,138,3.0,5.0,72,0.00,,,0.00,0,LWC V2.00 B727,2013-11-15 04:57:00,
2013-11-14 22:01:00,32.1,24.1,30.31,SE,139,3.0,5.0,72,0.00,,,0.00,0,LWC V2.00 B727,2013-11-15 05:01:00,
2013-11-14 22:06:00,32.0,24.0,30.30,SE,138,3.0,4.0,72,0.00,,,0.00,0,LWC V2.00 B727,2013-11-15 05:06:00,
2013-11-14 22:11:00,31.8,23.8,30.30,SE,138,3.0,5.0,72,0.00,,,0.00,0,LWC V2.00 B727,2013-11-15 05:11:00,
2013-11-14 22:16:00,31.7,23.7,30.30,SE,138,3.0,5.0,72,0.00,,,0.00,0,LWC V2.00 B727,2013-11-15 05:16:00,
2013-11-14 22:21:00,31.5,23.9,30.30,SE,125,4.0,4.0,73,0.00,,,0.00,0,LWC V2.00 B727,2013-11-15 05:21:00,
2013-11-14 22:26:00,31.4,23.8,30.30,SE,128,3.0,5.0,73,0.00,,,0.00,0,LWC V2.00 B727,2013-11-15 05:26:00,
2013-11-14 22:31:00,31.2,23.6,30.30,SE,142,4.0,5.0,73,0.00,,,0.00,0,LWC V2.00 B727,2013-11-15 05:31:00,
2013-11-14 22:36:00,31.1,23.5,30.29,SE,134,5.0,6.0,73,0.00,,,0.00,0,LWC V2.00 B727,2013-11-15 05:36:00,
2013-11-14 22:41:00,31.0,23.4,30.29,SE,135,5.0,6.0,73,0.00,,,0.00,0,LWC V2.00 B727,2013-11-15 05:41:00,
2013-11-14 22:46:00,30.9,23.3,30.29,SE,136,4.0,7.0,73,0.00,,,0.00,0,LWC V2.00 B727,2013-11-15 05:46:00,
2013-11-14 22:51:00,30.9,23.3,30.29,SE,135,3.0,6.0,73,0.00,,,0.00,0,LWC V2.00 B727,2013-11-15 05:51:00,
2013-11-14 22:56:00,30.9,23.3,30.29,SE,135,5.0,6.0,73,0.00,,,0.00,0,LWC V2.00 B727,2013-11-15 05:56:00,
2013-11-14 23:01:00,30.9,23.3,30.29,SE,134,4.0,5.0,73,0.00,,,0.00,0,LWC V2.00 B727,2013-11-15 06:01:00,
2013-11-14 23:06:00,30.9,23.3,30.28,SE,134,4.0,5.0,73,0.00,,,0.00,0,LWC V2.00 B727,2013-11-15 06:06:00,
2013-11-14 23:11:00,30.8,23.2,30.28,SE,134,3.0,6.0,73,0.00,,,0.00,0,LWC V2.00 B727,2013-11-15 06:11:00,
2013-11-14 23:16:00,30.7,22.8,30.28,SE,134,3.0,6.0,72,0.00,,,0.00,0,LWC V2.00 B727,2013-11-15 06:16:00,
2013-11-14 23:21:00,30.6,22.7,30.28,SE,134,3.0,5.0,72,0.00,,,0.00,0,LWC V2.00 B727,2013-11-15 06:21:00,
2013-11-14 23:26:00,30.7,22.4,30.28,SE,134,3.0,4.0,71,0.00,,,0.00,0,LWC V2.00 B727,2013-11-15 06:26:00,
2013-11-14 23:31:00,30.7,22.4,30.28,SE,134,1.0,3.0,71,0.00,,,0.00,0,LWC V2.00 B727,2013-11-15 06:31:00,
2013-11-14 23:36:00,30.5,22.2,30.27,SE,134,2.0,3.0,71,0.00,,,0.00,0,LWC V2.00 B727,2013-11-15 06:36:00,
2013-11-14 23:41:00,30.3,22.0,30.28,SE,134,4.0,4.0,71,0.00,,,0.00,0,LWC V2.00 B727,2013-11-15 06:41:00,
2013-11-14 23:46:00,30.2,22.3,30.28,SE,134,1.0,3.0,72,0.00,,,0.00,0,LWC V2.00 B727,2013-11-15 06:46:00,
2013-11-14 23:51:00,30.2,22.3,30.28,SE,134,0.0,0.0,72,0.00,,,0.00,0,LWC V2.00 B727,2013-11-15 06:51:00,
2013-11-14 23:56:00,30.2,22.3,30.28,SE,134,0.0,0.0,72,0.00,,,0.00,0,LWC V2.00 B727,2013-11-15 06:56:00,